Time;durP1;ratioP1;P1;durP2;ratioP2;P2;SDS_P1;SDS_P2;PMS_P1;PMS_P2;Temp;Humidity;BMP_temperature;BMP_pressure;BME280_temperature;BME280_humidity;BME280_pressure;Samples;Min_cycle;Max_cycle;Signal;HPM_P1;HPM_P2
2021/08/16 00:00:32;;;;;;;9.27;6.35;;;20.00;99.90;;;;;;5071192;28;20124;-77
2021/08/16 00:02:58;;;;;;;9.80;7.00;;;19.90;99.90;;;;;;5056127;28;20033;-77
2021/08/16 00:05:24;;;;;;;9.07;6.25;;;20.00;99.90;;;;;;5054361;28;20025;-79
2021/08/16 00:07:51;;;;;;;9.27;6.45;;;19.90;99.90;;;;;;5074010;28;20033;-77
2021/08/16 00:10:17;;;;;;;8.70;6.22;;;19.90;99.90;;;;;;5065610;28;20044;-77
2021/08/16 00:12:44;;;;;;;7.40;6.10;;;19.90;99.90;;;;;;5055054;28;20482;-77
2021/08/16 00:15:11;;;;;;;9.15;6.30;;;19.90;99.90;;;;;;5051802;28;20033;-78
2021/08/16 00:17:38;;;;;;;9.52;6.63;;;19.90;99.90;;;;;;5051700;28;20029;-78
2021/08/16 00:20:04;;;;;;;9.57;7.03;;;19.90;99.90;;;;;;5056579;28;20020;-77
2021/08/16 00:22:31;;;;;;;8.50;6.72;;;19.90;99.90;;;;;;5055213;28;20398;-77
2021/08/16 00:24:57;;;;;;;11.43;6.93;;;19.80;99.90;;;;;;5051102;28;20083;-77
2021/08/16 00:27:23;;;;;;;9.30;7.35;;;19.80;99.90;;;;;;5051841;28;20394;-77
2021/08/16 00:29:49;;;;;;;9.38;6.78;;;19.80;99.90;;;;;;5052485;28;20025;-76
2021/08/16 00:32:15;;;;;;;7.53;6.82;;;19.80;99.90;;;;;;5055565;28;20045;-78
2021/08/16 00:34:41;;;;;;;10.43;7.65;;;19.80;99.90;;;;;;5056105;28;20056;-76
2021/08/16 00:37:08;;;;;;;10.88;7.30;;;19.70;99.90;;;;;;5054124;28;20045;-77
2021/08/16 00:39:34;;;;;;;8.63;6.43;;;19.70;99.90;;;;;;5067960;28;20036;-77
2021/08/16 00:42:00;;;;;;;8.55;6.68;;;19.70;99.90;;;;;;5072331;28;20037;-76
2021/08/16 00:44:26;;;;;;;9.60;7.22;;;19.70;99.90;;;;;;5063919;28;20040;-76
2021/08/16 00:46:53;;;;;;;11.07;7.55;;;19.60;99.90;;;;;;5058223;28;20041;-77
2021/08/16 00:49:19;;;;;;;11.93;7.40;;;19.50;99.90;;;;;;5054948;28;20029;-77
2021/08/16 00:51:45;;;;;;;10.45;7.70;;;19.50;99.90;;;;;;5063632;28;20036;-77
2021/08/16 00:54:12;;;;;;;10.48;7.57;;;19.50;99.90;;;;;;5054513;28;20029;-77
2021/08/16 00:56:39;;;;;;;12.68;8.35;;;19.50;99.90;;;;;;5055264;28;20060;-77
2021/08/16 00:59:07;;;;;;;8.73;7.43;;;19.50;99.90;;;;;;5059402;28;20055;-77
2021/08/16 01:01:34;;;;;;;9.52;7.60;;;19.50;99.90;;;;;;5073614;28;20147;-76
2021/08/16 01:04:01;;;;;;;9.93;7.40;;;19.50;99.90;;;;;;5069012;28;20041;-77
2021/08/16 01:06:28;;;;;;;9.65;7.18;;;19.50;99.90;;;;;;5058292;28;20036;-77
2021/08/16 01:08:54;;;;;;;10.27;7.70;;;19.50;99.90;;;;;;5057377;28;20025;-77
2021/08/16 01:11:21;;;;;;;9.43;7.35;;;19.50;99.90;;;;;;5054330;28;20036;-77
2021/08/16 01:13:48;;;;;;;12.38;8.05;;;19.40;99.90;;;;;;5068545;28;20037;-77
2021/08/16 01:16:16;;;;;;;9.20;8.07;;;19.40;99.90;;;;;;5063957;28;20044;-76
2021/08/16 01:18:43;;;;;;;9.13;7.03;;;19.40;99.90;;;;;;5053635;28;20041;-77
2021/08/16 01:21:12;;;;;;;10.10;7.90;;;19.40;99.90;;;;;;5054857;28;20033;-76
2021/08/16 01:23:38;;;;;;;10.48;7.47;;;19.40;99.90;;;;;;5054968;28;20637;-76
2021/08/16 01:26:04;;;;;;;8.57;7.68;;;19.40;99.90;;;;;;5059252;28;20037;-76
2021/08/16 01:28:31;;;;;;;10.15;8.43;;;19.50;99.90;;;;;;5068345;28;20044;-76
2021/08/16 01:31:00;;;;;;;10.65;8.05;;;19.50;99.90;;;;;;5054516;28;20033;-76
2021/08/16 01:33:27;;;;;;;9.77;8.27;;;19.50;99.90;;;;;;5053762;28;20037;-76
2021/08/16 01:35:53;;;;;;;11.40;7.82;;;19.60;99.90;;;;;;5069857;28;20045;-76
2021/08/16 01:38:21;;;;;;;9.73;8.05;;;19.70;99.90;;;;;;5052639;28;20502;-76
2021/08/16 01:40:48;;;;;;;10.38;8.15;;;19.70;99.90;;;;;;5069345;28;20017;-76
2021/08/16 01:43:14;;;;;;;12.75;8.73;;;19.80;99.90;;;;;;5053632;28;20642;-76
2021/08/16 01:45:40;;;;;;;11.25;8.25;;;19.80;99.90;;;;;;5054080;28;20037;-76
2021/08/16 01:48:07;;;;;;;10.77;8.07;;;19.80;99.90;;;;;;5053752;28;20463;-76
2021/08/16 01:50:33;;;;;;;11.75;8.00;;;19.80;99.90;;;;;;5053289;28;20033;-76
2021/08/16 01:53:00;;;;;;;10.35;7.88;;;19.90;99.90;;;;;;5053657;28;20044;-77
2021/08/16 01:55:26;;;;;;;12.30;8.00;;;19.90;99.90;;;;;;5053246;28;20033;-76
2021/08/16 01:57:52;;;;;;;9.38;8.13;;;19.80;99.90;;;;;;5053911;28;20020;-77
2021/08/16 02:00:18;;;;;;;9.18;7.47;;;19.80;99.90;;;;;;5056657;28;20052;-76
2021/08/16 02:02:44;;;;;;;8.85;7.57;;;19.80;99.90;;;;;;5053187;28;20032;-77
2021/08/16 02:05:11;;;;;;;11.13;8.35;;;19.80;99.90;;;;;;5072723;28;20462;-79
2021/08/16 02:07:37;;;;;;;9.57;7.38;;;19.90;99.90;;;;;;5069577;28;20025;-75
2021/08/16 02:10:04;;;;;;;12.38;7.75;;;19.90;99.90;;;;;;5055216;28;20033;-76
2021/08/16 02:12:30;;;;;;;7.40;6.68;;;19.90;99.90;;;;;;5053027;28;20301;-76
2021/08/16 02:14:56;;;;;;;9.45;6.95;;;20.00;99.90;;;;;;5053801;28;20150;-75
2021/08/16 02:17:23;;;;;;;7.80;6.78;;;20.20;99.90;;;;;;5053212;28;20029;-76
2021/08/16 02:19:49;;;;;;;7.13;6.35;;;20.40;99.90;;;;;;5053681;28;20033;-76
2021/08/16 02:22:15;;;;;;;9.98;6.22;;;20.60;99.90;;;;;;5065634;28;20040;-76
2021/08/16 02:24:41;;;;;;;7.90;5.55;;;20.80;99.90;;;;;;5053509;28;20029;-77
2021/08/16 02:27:08;;;;;;;7.10;5.55;;;20.90;99.90;;;;;;5066902;28;20041;-76
2021/08/16 02:29:35;;;;;;;8.68;5.43;;;21.00;99.90;;;;;;5072745;28;20029;-76
2021/08/16 02:32:01;;;;;;;8.40;5.15;;;21.00;99.90;;;;;;5080011;28;20033;-77
2021/08/16 02:34:28;;;;;;;7.20;4.95;;;21.10;99.90;;;;;;5063124;28;20045;-78
2021/08/16 02:36:54;;;;;;;6.13;5.00;;;21.20;99.90;;;;;;5053535;28;20055;-79
2021/08/16 02:39:20;;;;;;;8.90;5.28;;;21.20;99.90;;;;;;5052796;28;20033;-80
2021/08/16 02:41:48;;;;;;;9.75;4.65;;;21.20;99.90;;;;;;5052610;28;20064;-78
2021/08/16 02:44:21;;;;;;;7.60;4.57;;;21.20;99.90;;;;;;5057301;28;20055;-79
2021/08/16 02:46:48;;;;;;;5.90;4.43;;;21.20;99.90;;;;;;5015251;28;20034;-78
2021/08/16 02:49:14;;;;;;;7.10;3.90;;;21.20;99.90;;;;;;4999137;28;20122;-78
2021/08/16 02:51:40;;;;;;;11.30;4.85;;;21.20;99.90;;;;;;5021286;28;20042;-77
2021/08/16 02:54:07;;;;;;;9.52;4.53;;;21.20;99.90;;;;;;4995556;28;20034;-78
2021/08/16 02:56:33;;;;;;;8.68;4.03;;;21.20;99.90;;;;;;4998465;28;20042;-78
2021/08/16 02:58:59;;;;;;;8.73;3.30;;;21.20;99.20;;;;;;5011325;28;20052;-78
2021/08/16 03:01:25;;;;;;;4.45;3.53;;;21.20;98.80;;;;;;5010927;28;20615;-77
2021/08/16 03:03:51;;;;;;;6.03;3.78;;;21.10;98.30;;;;;;5010701;28;20080;-78
2021/08/16 03:06:17;;;;;;;6.57;3.03;;;21.20;97.50;;;;;;4995217;28;20154;-80
2021/08/16 03:08:44;;;;;;;9.60;4.20;;;21.10;96.40;;;;;;5010771;28;20040;-76
2021/08/16 03:11:10;;;;;;;9.18;3.90;;;21.10;95.00;;;;;;5010879;28;20042;-76
2021/08/16 03:13:36;;;;;;;7.45;3.35;;;21.10;93.80;;;;;;5010284;28;20045;-78
2021/08/16 03:16:02;;;;;;;5.63;3.60;;;21.10;93.20;;;;;;5020046;28;20044;-77
2021/08/16 03:18:29;;;;;;;5.85;3.10;;;21.10;92.80;;;;;;5039325;28;20406;-79
2021/08/16 03:20:55;;;;;;;4.35;3.47;;;21.00;92.60;;;;;;5021795;28;20041;-76
2021/08/16 03:23:21;;;;;;;6.75;3.15;;;20.90;92.40;;;;;;5031920;28;20041;-75
2021/08/16 03:25:48;;;;;;;7.03;2.95;;;20.90;92.20;;;;;;5052229;28;20033;-78
2021/08/16 03:28:14;;;;;;;7.35;2.97;;;20.80;91.00;;;;;;5051692;28;20481;-77
2021/08/16 03:30:40;;;;;;;4.65;3.45;;;20.80;91.10;;;;;;5052861;28;20033;-77
2021/08/16 03:33:06;;;;;;;6.97;3.20;;;20.70;90.70;;;;;;5058961;28;20116;-76
2021/08/16 03:35:32;;;;;;;11.18;3.70;;;20.70;90.90;;;;;;5065337;28;20036;-75
2021/08/16 03:37:58;;;;;;;8.43;3.53;;;20.60;91.20;;;;;;5052322;28;20052;-82
2021/08/16 03:40:25;;;;;;;6.78;3.58;;;20.50;90.60;;;;;;5072471;28;20048;-77
2021/08/16 03:42:51;;;;;;;5.18;3.03;;;20.50;89.50;;;;;;5069947;28;20041;-77
2021/08/16 03:45:20;;;;;;;5.38;2.45;;;20.40;88.40;;;;;;5063485;28;20454;-77
2021/08/16 03:47:47;;;;;;;4.32;2.63;;;20.40;88.50;;;;;;5058860;28;20041;-75
2021/08/16 03:50:13;;;;;;;7.38;2.97;;;20.40;88.70;;;;;;5065185;28;20033;-82
2021/08/16 03:52:40;;;;;;;5.30;3.35;;;20.30;88.70;;;;;;5066212;28;20037;-75
2021/08/16 03:55:07;;;;;;;5.68;2.95;;;20.30;88.50;;;;;;5058085;28;20381;-74
2021/08/16 03:57:33;;;;;;;5.82;2.97;;;20.20;88.50;;;;;;5053554;28;20338;-75
2021/08/16 04:00:00;;;;;;;5.55;2.55;;;20.20;88.80;;;;;;5065911;28;20028;-76
2021/08/16 04:02:26;;;;;;;7.40;2.78;;;20.10;88.80;;;;;;5055570;28;20033;-76
2021/08/16 04:04:53;;;;;;;7.22;3.97;;;20.10;88.90;;;;;;5052280;28;20036;-75
2021/08/16 04:07:19;;;;;;;5.50;3.30;;;20.10;88.80;;;;;;5056209;28;20037;-76
2021/08/16 04:09:45;;;;;;;8.05;3.63;;;20.10;88.80;;;;;;5060947;28;20029;-76
2021/08/16 04:12:11;;;;;;;5.25;2.70;;;20.00;89.20;;;;;;5075206;28;20028;-77
2021/08/16 04:14:38;;;;;;;7.88;3.05;;;20.10;85.90;;;;;;5055091;28;20029;-75
2021/08/16 04:17:04;;;;;;;5.60;2.65;;;20.20;85.40;;;;;;5056336;28;20481;-75
2021/08/16 04:19:30;;;;;;;3.90;2.75;;;20.20;84.90;;;;;;5054525;28;20116;-77
2021/08/16 04:21:56;;;;;;;7.40;3.30;;;20.10;84.90;;;;;;5056148;28;21870;-76
2021/08/16 04:24:22;;;;;;;6.22;2.80;;;20.10;85.20;;;;;;5055752;28;20048;-78
2021/08/16 04:26:49;;;;;;;8.20;3.08;;;20.00;84.80;;;;;;5057097;28;20095;-75
2021/08/16 04:29:15;;;;;;;6.45;2.55;;;20.00;85.00;;;;;;5056021;28;20036;-78
2021/08/16 04:31:41;;;;;;;4.97;2.88;;;20.00;84.80;;;;;;5059621;28;20024;-75
2021/08/16 04:34:07;;;;;;;10.00;2.90;;;19.90;84.20;;;;;;5073934;28;20500;-76
2021/08/16 04:36:33;;;;;;;4.50;2.70;;;19.90;82.80;;;;;;5055803;28;20033;-76
2021/08/16 04:39:00;;;;;;;6.78;3.00;;;19.90;81.60;;;;;;5068081;28;20048;-75
2021/08/16 04:41:26;;;;;;;3.88;1.92;;;20.00;81.30;;;;;;5068278;28;20162;-75
2021/08/16 04:43:52;;;;;;;6.75;2.72;;;19.90;80.60;;;;;;5055350;28;20033;-76
2021/08/16 04:46:18;;;;;;;5.93;2.53;;;20.00;79.90;;;;;;5055236;28;20044;-76
2021/08/16 04:48:45;;;;;;;7.72;2.85;;;19.90;80.40;;;;;;5055475;28;20498;-76
2021/08/16 04:51:11;;;;;;;6.95;2.88;;;20.00;79.50;;;;;;5069931;28;20124;-75
2021/08/16 04:53:37;;;;;;;5.55;2.38;;;19.90;79.30;;;;;;5054700;28;20055;-75
2021/08/16 04:56:04;;;;;;;7.55;2.35;;;20.00;79.30;;;;;;5055333;28;20037;-76
2021/08/16 04:58:30;;;;;;;7.65;2.95;;;19.90;78.30;;;;;;5066733;28;20474;-80
2021/08/16 05:00:57;;;;;;;6.22;2.28;;;19.90;78.30;;;;;;5074627;28;20385;-77
2021/08/16 05:03:23;;;;;;;4.40;2.10;;;19.90;78.00;;;;;;5056518;28;20467;-79
2021/08/16 05:05:52;;;;;;;6.45;2.80;;;19.80;77.20;;;;;;5054645;28;20040;-78
2021/08/16 05:08:19;;;;;;;4.83;2.00;;;19.80;77.70;;;;;;5054931;28;20467;-76
2021/08/16 05:10:49;;;;;;;5.95;2.08;;;19.70;76.40;;;;;;5065362;28;20290;-76
2021/08/16 05:13:15;;;;;;;6.50;2.67;;;19.70;76.10;;;;;;5063737;28;20052;-76
2021/08/16 05:15:43;;;;;;;5.30;1.90;;;19.70;75.90;;;;;;5054450;28;20056;-77
2021/08/16 05:18:11;;;;;;;7.55;2.72;;;19.70;76.00;;;;;;5065254;28;20039;-75
2021/08/16 05:20:38;;;;;;;5.78;1.98;;;19.70;75.70;;;;;;5054713;28;20040;-76
2021/08/16 05:23:05;;;;;;;9.20;2.83;;;19.60;77.10;;;;;;5054154;28;20036;-77
2021/08/16 05:25:32;;;;;;;6.70;2.60;;;19.60;75.40;;;;;;5066130;28;20386;-76
2021/08/16 05:27:58;;;;;;;7.07;2.22;;;19.50;74.80;;;;;;5054423;28;20397;-76
2021/08/16 05:30:24;;;;;;;6.15;1.83;;;19.50;75.20;;;;;;5054077;28;20406;-77
2021/08/16 05:32:51;;;;;;;6.78;2.30;;;19.50;74.20;;;;;;5061436;28;20049;-76
2021/08/16 05:35:17;;;;;;;8.85;2.92;;;19.50;74.00;;;;;;5054140;28;20033;-76
2021/08/16 05:37:44;;;;;;;4.97;2.08;;;19.50;74.10;;;;;;5053901;28;20040;-76
2021/08/16 05:40:10;;;;;;;6.35;2.30;;;19.50;73.90;;;;;;5054515;28;20040;-75
2021/08/16 05:42:37;;;;;;;7.68;1.77;;;19.50;74.00;;;;;;5054066;28;20044;-77
2021/08/16 05:45:05;;;;;;;4.93;2.05;;;19.50;74.00;;;;;;5036722;28;20041;-76
2021/08/16 05:47:31;;;;;;;5.35;1.83;;;19.50;72.80;;;;;;5053230;28;20033;-76
2021/08/16 05:49:57;;;;;;;6.03;1.80;;;19.50;74.70;;;;;;5054972;28;20047;-76
2021/08/16 05:52:24;;;;;;;5.72;2.30;;;19.60;74.00;;;;;;5054284;28;20029;-76
2021/08/16 05:54:50;;;;;;;5.55;1.73;;;19.70;72.90;;;;;;5053846;28;20029;-77
2021/08/16 05:57:16;;;;;;;6.82;2.70;;;19.70;73.00;;;;;;5054236;28;20398;-80
2021/08/16 05:59:42;;;;;;;5.18;2.25;;;19.70;72.50;;;;;;5064487;28;20033;-75
2021/08/16 06:02:08;;;;;;;6.85;2.47;;;19.80;72.30;;;;;;5067074;28;20032;-75
2021/08/16 06:04:35;;;;;;;6.78;2.30;;;19.80;73.80;;;;;;5059245;28;20401;-75
2021/08/16 06:07:01;;;;;;;4.10;1.77;;;19.90;72.10;;;;;;5052354;28;20035;-75
2021/08/16 06:09:27;;;;;;;5.05;1.95;;;19.90;72.10;;;;;;5051628;28;20040;-75
2021/08/16 06:11:53;;;;;;;6.35;2.38;;;19.80;72.80;;;;;;5067512;28;20454;-75
2021/08/16 06:14:19;;;;;;;9.38;3.25;;;19.90;72.70;;;;;;5053334;28;20044;-76
2021/08/16 06:16:46;;;;;;;7.55;3.10;;;20.00;72.20;;;;;;5054063;28;20029;-75
2021/08/16 06:19:12;;;;;;;6.20;2.78;;;20.10;73.00;;;;;;5053880;28;20371;-76
2021/08/16 06:21:44;;;;;;;5.95;1.88;;;20.00;73.80;;;;;;5053030;28;20036;-75
2021/08/16 06:24:11;;;;;;;7.80;2.17;;;20.20;73.60;;;;;;5053967;28;20032;-75
2021/08/16 06:26:38;;;;;;;6.45;2.25;;;20.30;73.00;;;;;;5052947;28;20040;-75
2021/08/16 06:29:04;;;;;;;5.85;2.35;;;20.70;74.60;;;;;;5062128;28;20028;-75
2021/08/16 06:31:31;;;;;;;5.75;2.80;;;20.70;73.80;;;;;;5066364;28;20478;-75
2021/08/16 06:33:58;;;;;;;12.30;3.60;;;20.90;74.10;;;;;;5053562;28;20049;-75
2021/08/16 06:36:24;;;;;;;4.57;1.92;;;21.20;72.90;;;;;;5053079;28;20044;-75
2021/08/16 06:38:50;;;;;;;6.45;2.55;;;21.50;72.90;;;;;;5053227;28;20033;-75
2021/08/16 06:41:17;;;;;;;8.35;2.40;;;21.20;71.00;;;;;;5054560;28;20037;-75
2021/08/16 06:43:46;;;;;;;5.75;2.22;;;20.50;72.30;;;;;;5061963;28;20033;-76
2021/08/16 06:46:14;;;;;;;6.15;2.45;;;20.10;71.60;;;;;;5061882;28;20060;-78
2021/08/16 06:48:41;;;;;;;7.53;3.30;;;20.00;74.50;;;;;;5060027;28;20032;-75
2021/08/16 06:51:07;;;;;;;6.88;2.63;;;20.00;74.60;;;;;;5052851;28;20029;-76
2021/08/16 06:53:33;;;;;;;7.95;2.55;;;20.00;75.50;;;;;;5052235;28;20029;-75
2021/08/16 06:55:59;;;;;;;8.07;2.53;;;20.00;74.70;;;;;;5084608;28;20041;-75
2021/08/16 06:58:25;;;;;;;5.07;2.75;;;20.50;72.40;;;;;;5052174;28;20025;-76
2021/08/16 07:00:52;;;;;;;5.80;1.98;;;21.60;69.50;;;;;;5054306;28;20041;-76
2021/08/16 07:03:18;;;;;;;4.10;2.00;;;22.20;65.10;;;;;;5062863;28;20037;-81
2021/08/16 07:05:45;;;;;;;9.20;3.05;;;22.20;64.90;;;;;;5053047;28;20478;-76
2021/08/16 07:08:13;;;;;;;6.22;1.95;;;21.90;66.00;;;;;;5052591;28;20031;-77
2021/08/16 07:10:40;;;;;;;5.22;2.15;;;21.40;67.10;;;;;;5052632;28;20033;-76
2021/08/16 07:13:06;;;;;;;8.90;2.22;;;21.30;69.30;;;;;;5052696;28;20037;-75
2021/08/16 07:15:32;;;;;;;7.13;2.58;;;21.80;68.10;;;;;;5052689;28;20044;-76
2021/08/16 07:17:59;;;;;;;6.55;2.08;;;21.40;68.00;;;;;;5052581;28;20029;-76
2021/08/16 07:20:27;;;;;;;7.40;2.40;;;21.60;70.20;;;;;;5052542;28;20466;-75
2021/08/16 07:22:53;;;;;;;6.82;2.58;;;21.70;67.20;;;;;;5052632;28;20035;-76
2021/08/16 07:25:19;;;;;;;6.80;2.20;;;21.20;68.80;;;;;;5051735;28;20041;-78
2021/08/16 07:27:45;;;;;;;7.93;1.75;;;21.10;69.50;;;;;;5052782;28;20047;-76
2021/08/16 07:30:12;;;;;;;5.07;1.45;;;20.90;67.50;;;;;;5052541;28;20036;-75
2021/08/16 07:32:38;;;;;;;7.43;1.90;;;20.90;67.50;;;;;;5052285;28;20234;-78
2021/08/16 07:35:05;;;;;;;7.72;2.50;;;20.70;67.80;;;;;;5052773;28;20382;-75
2021/08/16 07:37:31;;;;;;;6.15;1.92;;;20.60;67.60;;;;;;5051785;28;20041;-76
2021/08/16 07:39:57;;;;;;;6.53;2.00;;;20.50;67.70;;;;;;5055826;28;20029;-76
2021/08/16 07:42:25;;;;;;;8.43;1.95;;;20.50;69.00;;;;;;5058409;28;20095;-76
2021/08/16 07:44:53;;;;;;;5.97;2.00;;;20.50;67.70;;;;;;5058790;28;20036;-77
2021/08/16 07:47:19;;;;;;;6.05;2.20;;;20.30;68.50;;;;;;5058983;28;20029;-81
2021/08/16 07:49:45;;;;;;;4.80;1.85;;;20.20;68.80;;;;;;5059133;28;20029;-75
2021/08/16 07:52:11;;;;;;;5.57;1.98;;;20.30;69.60;;;;;;5061884;28;20028;-76
2021/08/16 07:54:38;;;;;;;5.18;2.03;;;20.40;69.30;;;;;;5072748;28;20358;-76
2021/08/16 07:57:04;;;;;;;4.45;2.00;;;20.30;69.60;;;;;;5067013;28;20036;-76
2021/08/16 07:59:31;;;;;;;5.75;1.52;;;20.40;69.00;;;;;;5081554;28;20044;-76
2021/08/16 08:01:57;;;;;;;7.22;2.78;;;20.50;69.30;;;;;;5066266;28;20036;-76
2021/08/16 08:04:23;;;;;;;5.85;1.63;;;20.80;68.70;;;;;;5062972;28;20032;-77
2021/08/16 08:06:49;;;;;;;5.97;2.00;;;21.00;68.60;;;;;;5087423;28;20036;-76
2021/08/16 08:09:15;;;;;;;6.38;2.10;;;21.20;67.40;;;;;;5076388;28;20033;-76
2021/08/16 08:11:42;;;;;;;7.13;2.10;;;21.00;68.00;;;;;;5059656;28;20037;-76
2021/08/16 08:14:08;;;;;;;5.50;2.40;;;21.00;68.70;;;;;;5064129;28;20393;-76
2021/08/16 08:16:34;;;;;;;7.57;2.25;;;21.20;67.70;;;;;;5072908;28;20041;-77
2021/08/16 08:19:00;;;;;;;6.50;1.90;;;21.60;67.20;;;;;;5058953;28;20040;-76
2021/08/16 08:21:26;;;;;;;9.63;2.35;;;21.60;66.50;;;;;;5058148;28;20033;-76
2021/08/16 08:23:53;;;;;;;7.38;2.53;;;21.70;66.50;;;;;;5058750;28;20112;-76
2021/08/16 08:26:19;;;;;;;7.60;2.42;;;21.90;67.80;;;;;;5058348;28;20063;-76
2021/08/16 08:28:46;;;;;;;5.35;1.50;;;22.00;65.40;;;;;;5058801;28;20051;-76
2021/08/16 08:31:13;;;;;;;5.93;2.60;;;21.70;67.00;;;;;;5058841;28;20025;-76
2021/08/16 08:33:39;;;;;;;5.97;1.67;;;21.70;65.10;;;;;;5068051;28;20045;-76
2021/08/16 08:36:05;;;;;;;6.40;1.90;;;21.90;66.10;;;;;;5077487;28;20028;-76
2021/08/16 08:38:31;;;;;;;8.55;2.53;;;21.80;65.70;;;;;;5069472;28;20028;-77
2021/08/16 08:41:00;;;;;;;6.57;2.58;;;21.50;66.30;;;;;;5067680;28;20036;-76
2021/08/16 08:43:27;;;;;;;6.95;2.35;;;21.40;66.80;;;;;;5058395;28;20344;-76
2021/08/16 08:45:57;;;;;;;6.13;2.45;;;21.30;66.90;;;;;;5069123;28;20033;-76
2021/08/16 08:48:24;;;;;;;5.95;1.90;;;21.10;67.70;;;;;;5058237;28;20036;-76
2021/08/16 08:50:50;;;;;;;5.80;1.75;;;21.20;67.50;;;;;;5056967;28;20033;-76
2021/08/16 08:53:16;;;;;;;5.32;2.05;;;21.20;67.70;;;;;;5054834;28;20040;-75
2021/08/16 08:55:44;;;;;;;7.93;1.95;;;21.30;67.40;;;;;;5054621;28;20040;-76
2021/08/16 08:58:14;;;;;;;6.70;1.73;;;21.60;67.00;;;;;;5055093;28;20478;-75
2021/08/16 09:00:40;;;;;;;7.93;2.47;;;21.70;66.20;;;;;;5055313;28;20045;-76
2021/08/16 09:03:09;;;;;;;7.63;2.10;;;21.50;66.50;;;;;;5055108;28;20029;-76
2021/08/16 09:05:53;;;;;;;6.43;2.08;;;21.30;66.80;;;;;;5053068;28;20045;-76
2021/08/16 09:08:26;;;;;;;4.72;2.00;;;21.30;66.60;;;;;;5069015;28;20052;-76
2021/08/16 09:11:04;;;;;;;6.30;2.03;;;21.30;66.70;;;;;;5068875;28;20048;-76
2021/08/16 09:13:30;;;;;;;5.00;1.70;;;21.40;67.90;;;;;;5068829;28;20052;-75
2021/08/16 09:16:07;;;;;;;3.58;1.75;;;21.30;66.90;;;;;;5054765;28;20025;-74
2021/08/16 09:18:34;;;;;;;6.63;1.83;;;21.30;66.80;;;;;;5054464;28;20029;-75
2021/08/16 09:21:00;;;;;;;3.20;1.88;;;21.40;66.10;;;;;;5069000;28;20494;-75
2021/08/16 09:23:26;;;;;;;5.60;1.77;;;21.60;66.10;;;;;;5054230;28;20033;-76
2021/08/16 09:25:55;;;;;;;4.28;1.40;;;21.50;65.70;;;;;;5068344;28;20041;-76
2021/08/16 09:28:26;;;;;;;3.53;1.60;;;21.80;66.50;;;;;;5067699;28;20032;-76
2021/08/16 09:30:52;;;;;;;4.03;1.50;;;21.80;66.50;;;;;;5068825;28;20044;-76
2021/08/16 09:33:21;;;;;;;6.90;1.70;;;21.70;66.00;;;;;;5054580;28;20045;-75
2021/08/16 09:35:56;;;;;;;5.70;2.00;;;21.60;65.20;;;;;;5054235;28;20036;-76
2021/08/16 09:38:41;;;;;;;7.40;2.30;;;21.50;65.50;;;;;;5054499;28;20036;-77
2021/08/16 09:41:26;;;;;;;8.25;1.35;;;21.40;65.80;;;;;;5054437;28;20036;-77
2021/08/16 09:44:09;;;;;;;8.75;1.85;;;21.40;65.50;;;;;;5054369;28;20458;-76
2021/08/16 09:46:36;;;;;;;4.63;1.30;;;21.60;66.00;;;;;;5053945;28;20056;-77
2021/08/16 09:49:03;;;;;;;3.28;1.38;;;21.90;66.20;;;;;;5054215;28;20033;-76
2021/08/16 09:51:34;;;;;;;5.95;1.95;;;22.30;65.10;;;;;;5066786;28;20033;-77
2021/08/16 09:54:01;;;;;;;6.53;1.83;;;22.40;64.10;;;;;;5054205;28;20418;-77
2021/08/16 09:56:28;;;;;;;5.50;2.50;;;22.20;64.10;;;;;;5053923;28;20033;-77
2021/08/16 09:58:54;;;;;;;6.47;2.33;;;22.20;65.30;;;;;;5053525;28;20025;-76
2021/08/16 10:01:21;;;;;;;4.40;2.20;;;22.30;63.90;;;;;;5053857;28;20056;-76
2021/08/16 10:03:48;;;;;;;4.78;2.15;;;21.90;64.40;;;;;;5052376;28;20040;-78
2021/08/16 10:06:17;;;;;;;5.05;1.80;;;21.90;65.10;;;;;;5063535;28;20056;-77
2021/08/16 10:08:54;;;;;;;7.25;1.98;;;21.90;64.10;;;;;;5053422;28;20036;-76
2021/08/16 10:11:21;;;;;;;5.32;2.10;;;22.30;63.20;;;;;;5064768;28;20036;-76
2021/08/16 10:13:56;;;;;;;4.55;1.75;;;22.30;63.70;;;;;;5072264;28;20052;-76
2021/08/16 10:16:26;;;;;;;5.20;2.10;;;22.30;63.50;;;;;;5067197;28;20048;-77
2021/08/16 10:19:01;;;;;;;7.20;2.00;;;22.50;63.80;;;;;;5068525;28;20036;-76
2021/08/16 10:21:28;;;;;;;7.35;2.53;;;22.80;62.30;;;;;;5066744;28;20048;-77
2021/08/16 10:23:55;;;;;;;4.78;1.55;;;22.70;63.40;;;;;;5053564;28;20033;-75
2021/08/16 10:26:33;;;;;;;5.65;2.13;;;22.90;62.00;;;;;;5053543;28;20371;-76
2021/08/16 10:29:05;;;;;;;3.75;1.75;;;22.80;62.30;;;;;;5053828;28;20096;-76
2021/08/16 10:31:34;;;;;;;4.10;1.63;;;22.80;62.30;;;;;;5058175;28;20036;-77
2021/08/16 10:34:01;;;;;;;5.60;2.00;;;23.10;61.40;;;;;;5056959;28;20474;-75
2021/08/16 10:36:27;;;;;;;7.80;2.15;;;23.50;61.20;;;;;;5058065;28;20040;-76
2021/08/16 10:38:56;;;;;;;5.22;1.40;;;23.50;60.40;;;;;;5069700;28;20051;-75
2021/08/16 10:41:28;;;;;;;4.45;1.67;;;23.20;61.70;;;;;;5053360;28;20032;-78
2021/08/16 10:43:55;;;;;;;4.05;1.88;;;23.20;61.50;;;;;;5053033;28;20051;-77
2021/08/16 10:46:23;;;;;;;4.30;1.63;;;23.10;61.00;;;;;;5051816;28;20041;-76
2021/08/16 10:49:00;;;;;;;6.00;1.90;;;23.50;59.70;;;;;;5052994;28;20041;-77
2021/08/16 10:51:38;;;;;;;4.05;1.63;;;23.30;59.00;;;;;;5052885;28;20485;-76
2021/08/16 10:54:04;;;;;;;4.53;1.88;;;23.30;59.30;;;;;;5084991;28;20045;-77
2021/08/16 10:56:30;;;;;;;4.32;1.83;;;23.40;58.80;;;;;;5052190;28;20040;-77
2021/08/16 10:58:59;;;;;;;5.55;1.80;;;23.60;58.30;;;;;;5053591;28;20025;-78
2021/08/16 11:01:30;;;;;;;4.15;1.52;;;23.80;59.30;;;;;;5052068;28;20032;-79
2021/08/16 11:04:00;;;;;;;3.53;1.60;;;24.60;57.10;;;;;;5052555;28;20143;-77
2021/08/16 11:06:28;;;;;;;5.35;1.90;;;24.80;56.80;;;;;;5062317;28;20044;-76
2021/08/16 11:09:03;;;;;;;5.07;1.58;;;23.70;58.60;;;;;;5057527;28;20029;-76
2021/08/16 11:11:33;;;;;;;5.55;1.88;;;23.20;58.20;;;;;;5056008;28;20036;-76
2021/08/16 11:14:10;;;;;;;5.47;1.98;;;23.20;59.70;;;;;;5052140;28;20044;-76
2021/08/16 11:16:50;;;;;;;6.63;1.85;;;23.30;59.30;;;;;;5052197;28;20384;-75
2021/08/16 11:19:16;;;;;;;6.05;1.77;;;23.00;59.90;;;;;;5052508;28;20756;-77
2021/08/16 11:22:00;;;;;;;2.88;1.17;;;22.80;59.90;;;;;;5052207;28;20359;-77
2021/08/16 11:24:34;;;;;;;7.20;2.00;;;23.10;61.60;;;;;;5052711;28;20035;-76
2021/08/16 11:27:05;;;;;;;4.95;1.70;;;23.80;59.30;;;;;;5052432;28;20040;-76
2021/08/16 11:29:32;;;;;;;4.35;1.80;;;23.80;58.90;;;;;;5058508;28;20037;-77
2021/08/16 11:32:02;;;;;;;5.38;1.73;;;23.00;60.50;;;;;;5065808;28;20055;-76
2021/08/16 11:34:43;;;;;;;5.63;2.20;;;22.70;59.90;;;;;;5058396;28;20053;-77
2021/08/16 11:37:12;;;;;;;3.92;2.13;;;22.60;60.70;;;;;;5051389;28;20025;-78
2021/08/16 11:39:38;;;;;;;6.80;2.15;;;22.60;60.70;;;;;;5052381;28;20455;-76
2021/08/16 11:42:06;;;;;;;6.43;2.17;;;22.70;60.20;;;;;;5052129;28;20044;-76
2021/08/16 11:44:33;;;;;;;3.42;1.67;;;22.60;59.80;;;;;;5052028;28;20029;-76
2021/08/16 11:47:04;;;;;;;4.30;1.50;;;22.60;60.50;;;;;;5052759;28;20386;-76
2021/08/16 11:49:33;;;;;;;4.93;1.73;;;22.70;60.30;;;;;;5061007;28;20513;-76
2021/08/16 11:51:59;;;;;;;4.47;1.63;;;22.90;60.00;;;;;;5052740;28;20033;-75
2021/08/16 11:54:31;;;;;;;5.25;1.98;;;22.80;60.80;;;;;;5051854;28;20040;-80
2021/08/16 11:57:00;;;;;;;4.60;2.22;;;22.70;59.90;;;;;;5062493;28;20033;-76
2021/08/16 11:59:27;;;;;;;7.45;2.25;;;22.50;60.60;;;;;;5060715;28;20029;-80
2021/08/16 12:02:03;;;;;;;5.15;2.33;;;22.40;60.20;;;;;;5052292;28;20033;-76
2021/08/16 12:04:33;;;;;;;5.78;2.00;;;22.20;62.20;;;;;;5051738;28;20037;-76
2021/08/16 12:07:02;;;;;;;4.70;2.10;;;22.40;61.30;;;;;;5066821;28;20394;-76
2021/08/16 12:09:36;;;;;;;6.90;1.95;;;22.30;60.80;;;;;;5052412;28;20025;-77
2021/08/16 12:12:05;;;;;;;3.75;1.70;;;22.40;60.90;;;;;;5052528;28;20037;-77
2021/08/16 12:14:34;;;;;;;4.82;2.00;;;22.30;60.30;;;;;;5052445;28;20037;-76
2021/08/16 12:17:00;;;;;;;3.88;2.15;;;22.30;61.00;;;;;;5053498;28;20044;-79
2021/08/16 12:19:27;;;;;;;5.68;1.98;;;22.60;59.50;;;;;;5054824;28;20037;-82
2021/08/16 12:22:03;;;;;;;7.28;2.00;;;22.60;59.90;;;;;;5062606;28;20040;-75
2021/08/16 12:24:30;;;;;;;3.83;1.70;;;23.20;60.70;;;;;;5060387;28;20051;-76
2021/08/16 12:27:02;;;;;;;5.45;1.67;;;23.50;59.10;;;;;;5059352;28;20390;-76
2021/08/16 12:29:37;;;;;;;6.97;2.13;;;23.80;58.50;;;;;;5056484;28;20033;-77
2021/08/16 12:32:13;;;;;;;5.90;1.83;;;23.50;58.50;;;;;;5055749;28;20040;-76
2021/08/16 12:34:39;;;;;;;8.05;2.40;;;23.50;58.70;;;;;;5065788;28;20036;-77
2021/08/16 12:37:06;;;;;;;4.18;1.38;;;23.80;57.50;;;;;;5055851;28;20485;-78
2021/08/16 12:39:33;;;;;;;3.50;1.63;;;23.90;57.80;;;;;;5055257;28;20036;-77
2021/08/16 12:42:09;;;;;;;3.88;1.85;;;23.60;57.40;;;;;;5055782;28;20029;-77
2021/08/16 12:44:38;;;;;;;3.53;1.40;;;23.60;58.20;;;;;;5055855;28;20037;-77
2021/08/16 12:47:06;;;;;;;5.28;1.80;;;23.90;57.90;;;;;;5075248;28;20059;-76